Marc Fuchs

Scout - VfL Wolfsburg
3 Dez 2028
Sonntag
Verarbeitung

Persönlichkeit

Anpassungsfähigkeit (15) Ehrgeiz (14) Kontroverse (14) Loyalität (9) Druck (15) Professionalität (13) Fairness (1) Temperament (20)

Profil

Trainerstil Demokratisch
Lizenz Kontinentale Pro
Entschlossenheit 13
Menschenführung 8
Motivation 7
Disziplin 13
Arbeitszufriedenheit
100%
Ermüdung
0%
Rolle Scout
Gehalt 98.1K p/W
Vertrag 14.03.2029

Leistung

Verhalten Gut
Trainingseffektivität
58%
Spielerentwicklung
70%
Verletzungsprävention
30%
Taktische Umsetzung
70%

Letzte Ereignisse

Nahm an einer Scouting-Besprechung teil jetzt
Empfahl ein Transferziel jetzt
Spieler begutachtet jetzt
Spieler begutachtet 7T her
Spieler begutachtet 7T her
Spiel beobachtet 7T her
Spieler begutachtet 7T her
Spieler begutachtet 7T her

Aktuell beobachtet

113
Spieler Verein Status Fähigkeit Vertrauen Beobachtet Zuletzt beobachtet Letzte Stimme
Álvaro Montoro Botafogo Aktiv 135 / 138 40% 7 01.12.2028 -
Estêvão Portsmouth Aktiv 157 / 154 40% 2 01.12.2028 -
Harry Gray Harrogate Town Aktiv 131 / 138 40% 1 01.12.2028 -
Luis Otávio Orlando City Aktiv 107 / 126 40% 3 28.11.2028 -
Babis Kostoulas Oxford United Aktiv 146 / 155 40% 2 28.11.2028 -
Honest Ahanor Atalanta Aktiv 146 / 144 40% 13 26.11.2028 -
Matías Arias Vélez Aktiv 115 / 122 40% 4 26.11.2028 -
Ayyoub Bouaddi Stoke City Aktiv 152 / 157 40% 2 26.11.2028 -
Lucca São Paulo Aktiv 119 / 122 40% 3 24.11.2028 -
Sebastian Rodriguez Houston Dynamo Aktiv 114 / 124 40% 2 24.11.2028 -
Mikey Moore Stockport County Aktiv 147 / 146 40% 1 24.11.2028 -
Olivier Mambwa Young Boys Aktiv 112 / 122 40% 8 23.11.2028 -
Lisandro Piñero Banfield Aktiv 126 / 124 40% 3 22.11.2028 -
Rio Ngumoha Plymouth Argyle Aktiv 146 / 148 40% 2 22.11.2028 -
Jacob Peter Hödl Sturm Graz Aktiv 123 / 126 40% 1 22.11.2028 -
Aarón Ochoa Málaga Aktiv 126 / 133 40% 2 19.11.2028 -
Santiago Segovia Rosario Central Aktiv 109 / 121 40% 1 19.11.2028 -
Franco Mastantuono Córdoba Aktiv 151 / 152 40% 1 18.11.2028 -
Mihajlo Cvetković Club Brugge Aktiv 130 / 134 40% 1 18.11.2028 -
Lennart Karl TSG Hoffenheim Aktiv 138 / 154 40% 1 15.11.2028 -
Celías Ingenthron Platense Aktiv 112 / 130 40% 3 13.11.2028 -
Valentino Huertas Morón Aktiv 102 / 109 40% 1 13.11.2028 -
Ethan Nwaneri Arsenal Aktiv 159 / 160 40% 1 12.11.2028 -
Geovany Quenda Watford Aktiv 149 / 156 40% 1 09.11.2028 -
Joris Boguo Wolfsberger AC Aktiv 104 / 110 40% 1 07.11.2028 -
Ibrahim Mbaye Queens Park Rangers Aktiv 147 / 144 40% 3 06.11.2028 -
Tahiel Peralta Racing Club Aktiv 108 / 116 40% 1 06.11.2028 -
Johannes Moser Sturm Graz Aktiv 107 / 119 40% 1 06.11.2028 -
Peyton Miller New England Revolution Aktiv 107 / 119 40% 1 06.10.2028 -
Ryunosuke Sato Eibar Aktiv 133 / 138 40% 1 04.10.2028 -
Matias Siltanen Malmo FF Aktiv 131 / 133 40% 3 02.10.2028 -
Ramazan Bağdat Kairat Aktiv 106 / 112 40% 1 02.10.2028 -
Facundo Krüger Temperley Aktiv 117 / 113 40% 1 28.08.2028 -
Endrick Boca Juniors Aktiv 164 / 162 40% 1 28.08.2028 -
Thomas Schlupp BA All Stars Aktiv 114 / 109 40% 1 28.08.2028 -
Mathias Honsak Heidenheim Verloren 135 / 134 76% 1 21.08.2028 Befürworten
Adam Hložek TSG Hoffenheim Verloren 146 / 145 76% 1 14.08.2028 Befürworten
Trey Nyoni Rotherham United Aktiv 142 / 151 40% 6 08.08.2028 -
Shea Lacey Crystal Palace Aktiv 143 / 141 40% 2 08.08.2028 -
Ryan McAidoo Oldham Athletic Aktiv 133 / 132 40% 2 08.08.2028 -
Arnaud Kalimuendo Nottingham Forest Aktiv 150 / 153 40% 1 05.07.2028 -
Brandon Thomas-Asante Blackpool Aktiv 125 / 128 40% 1 05.07.2028 -
Iliman N'Diaye Everton Aktiv 161 / 162 40% 2 04.07.2028 -
Ez Abde Betis Aktiv 157 / 156 40% 1 04.07.2028 -
William Osula Wrexham Aktiv 143 / 136 40% 1 03.07.2028 -
Christopher Nkunku AC Milan Aktiv 168 / 162 40% 1 03.07.2028 -
Isaac Romero Sevilla Verloren 149 / 142 40% 1 26.06.2028 -
Yousef Salech Cardiff City Verloren 138 / 131 40% 1 26.06.2028 -
Rayan Hamburger SV Aktiv 140 / 153 40% 1 18.06.2028 -
Saïd El Mala Köln Aktiv 148 / 153 76% 1 03.06.2028 Befürworten
Tyler Fletcher Rotherham United Aktiv 113 / 116 40% 3 31.05.2028 -
Kerim Alajbegović Modena Aktiv 138 / 137 40% 1 31.05.2028 -
Ben Broggio Mansfield Town Aktiv 114 / 120 40% 1 31.05.2028 -
Daniel Banjaqui Benfica Aktiv 119 / 126 40% 11 29.05.2028 -
Jorge Salinas Racing Santander Aktiv 136 / 139 40% 8 29.05.2028 -
Christos Mouzakitis Hull City Aktiv 132 / 141 40% 3 28.05.2028 -
Giovanni Leoni Lincoln City Aktiv 142 / 141 40% 7 27.05.2028 -
Héctor Fort Real Sociedad Aktiv 147 / 142 40% 4 25.05.2028 -
Jan Bürger Northampton Town Aktiv 125 / 128 40% 2 25.05.2028 -
Josh Nichols Oldham Athletic Aktiv 123 / 122 40% 7 23.05.2028 -
Givairo Read Feyenoord Aktiv 152 / 156 40% 6 22.05.2028 -
Martim Cunha Porto Aktiv 109 / 110 40% 6 22.05.2028 -
Marc Bernal Sevilla Aktiv 151 / 156 40% 6 20.05.2028 -
Riquelme Thompson-Jones Accrington Stanley Aktiv 107 / 115 40% 5 20.05.2028 -
Andrija Bulatović Chamois Niortais Aktiv 129 / 132 40% 4 19.05.2028 -
Pau Cubarsí Real Sociedad Aktiv 161 / 167 40% 11 18.05.2028 -
Bernardo Lima Porto Aktiv 109 / 115 40% 4 18.05.2028 -
Ayden Heaven Portsmouth Aktiv 147 / 150 40% 7 18.05.2028 -
Jorthy Mokio ADO Den Haag Aktiv 130 / 137 40% 6 06.05.2028 -
Josh Acheampong Everton Aktiv 137 / 145 40% 3 06.04.2028 -
Izan Merino Málaga Aktiv 125 / 131 40% 2 05.04.2028 -
Prosper Peter Olympique Lyonnais Aktiv 111 / 123 40% 1 29.06.2027 -
Finn Azaz Southampton Aktiv 130 / 132 40% 1 18.05.2027 -
Georges Mikautadze Villarreal Aktiv 152 / 151 40% 1 18.05.2027 -
Joe Gelhardt Hull City Aktiv 138 / 137 40% 1 18.05.2027 -
Manu Koné AS Roma Aktiv 167 / 164 40% 2 15.05.2027 -
Chemsdine Talbi Sunderland Aktiv 147 / 141 40% 2 13.05.2027 -
Roberto Fernández Braga Aktiv 150 / 142 40% 6 11.05.2027 -
Kevin Fulham Aktiv 146 / 150 40% 2 09.05.2027 -
Aimar Osasuna Aktiv 148 / 148 40% 1 09.05.2027 -
Pablo Torre Mallorca Aktiv 140 / 146 40% 1 08.05.2027 -
Jonathan Dubasin Osasuna Aktiv 138 / 141 40% 1 08.05.2027 -
David Larrubia Málaga Aktiv 139 / 133 40% 1 02.05.2027 -
Savinho Tottenham Aktiv 153 / 152 40% 1 01.05.2027 -
Omar El Hilali Espanyol Aktiv 145 / 154 40% 1 01.05.2027 -
Andrés Martín Racing Santander Verloren 144 / 132 40% 4 27.04.2027 -
Francisco Conceição Köln Aktiv 151 / 156 40% 3 12.04.2027 -
Yeremy Pino Crystal Palace Aktiv 156 / 151 40% 3 11.04.2027 -
Osame Sahraoui LOSC Lille Aktiv 141 / 142 40% 1 06.04.2027 -
Pau Víctor Braga Aktiv 135 / 140 40% 1 04.04.2027 -
Takefusa Kubo VfB Stuttgart Aktiv 158 / 160 40% 2 31.03.2027 -
Geny Sporting CP Aktiv 148 / 148 40% 2 31.03.2027 -
Mikel Jauregizar Athletic Bilbao Aktiv 159 / 159 40% 3 21.03.2027 -
Alfon Sevilla Aktiv 145 / 136 40% 1 10.03.2027 -
Petter Nosa Dahl Rapid Wien Aktiv 124 / 120 40% 2 25.12.2026 -
Carlos Álvarez Club America Aktiv 146 / 146 40% 1 25.12.2026 -
Oihan Sancet Athletic Bilbao Aktiv 153 / 157 40% 3 20.12.2026 -
Christantus Uche Getafe Aktiv 132 / 138 40% 1 20.12.2026 -
Sota Kitano Red Bull Salzburg Aktiv 130 / 118 40% 2 16.12.2026 -
Yorbe Vertessen Red Bull Salzburg Aktiv 127 / 127 40% 2 15.12.2026 -
Metinho Basel Aktiv 126 / 127 40% 2 10.12.2026 -
João Pedro Chelsea Aktiv 146 / 154 40% 1 10.12.2026 -
Moisés Caicedo Chelsea Aktiv 161 / 165 40% 2 07.12.2026 -
Carlos Forbs Club Brugge Aktiv 142 / 137 40% 1 27.11.2026 -
Oswin Appollis Orlando Pirates Aktiv 125 / 120 40% 1 20.11.2026 -
Mattia Zanotti Young Boys Aktiv 121 / 128 40% 1 09.11.2026 -
Matthias Seidl Rapid Wien Aktiv 122 / 123 40% 1 31.10.2026 -
Amadou Onana Aston Villa Aktiv 148 / 149 40% 1 26.10.2026 -
Michael Olise Bayern Munich Aktiv 181 / 180 40% 1 23.10.2026 -
Maurits Kjærgaard Red Bull Salzburg Aktiv 121 / 131 40% 1 20.10.2026 -
Felix Nmecha Borussia Dortmund Aktiv 152 / 166 40% 1 04.08.2026 -
Frenkie de Jong Barcelona Aktiv 156 / 167 40% 1 01.08.2026 -
Cody Gakpo Liverpool Aktiv 153 / 161 40% 1 01.08.2026 -